<?xml version="1.0" encoding="UTF-8" standalone="no" ?>
<gpx xmlns="http://www.topografix.com/GPX/1/1" creator="MapSource 6.11.6" version="1.1" xmlns:xsi="http://www.w3.org/2001/XMLSchema-instance" xsi:schemaLocation="http://www.topografix.com/GPX/1/1 http://www.topografix.com/GPX/1/1/gpx.xsd">

  <metadata>
    <link href="http://www.garmin.com">
      <text>Garmin International</text>
    </link>
    <time>2009-10-18T15:27:26Z</time>
    <bounds maxlat="50.580801" maxlon="6.290115" minlat="50.560971" minlon="6.252236"/>
  </metadata>

  <trk>
    <name>Panzersperren des Westwalls</name>
    <extensions>
      <gpxx:TrackExtension xmlns:gpxx="http://www.garmin.com/xmlschemas/GpxExtensions/v3" xmlns:xsi="http://www.w3.org/2001/XMLSchema-instance" xsi:schemaLocation="http://www.garmin.com/xmlschemas/GpxExtensions/v3 http://www.garmin.com/xmlschemas/GpxExtensions/v3/GpxExtensionsv3.xsd">
        <gpxx:DisplayColor>White</gpxx:DisplayColor>
      </gpxx:TrackExtension>
    </extensions>
    <trkseg>
      <trkpt lat="50.572906" lon="6.263595">
        <ele>396.700000</ele>
        <time>2009-10-18T17:18:52Z</time>
      </trkpt>
      <trkpt lat="50.573585" lon="6.263994">
        <ele>553.400000</ele>
        <time>2009-10-18T17:19:14Z</time>
      </trkpt>
      <trkpt lat="50.573786" lon="6.264013">
        <ele>555.300000</ele>
        <time>2009-10-18T17:19:20Z</time>
      </trkpt>
      <trkpt lat="50.573812" lon="6.264051">
        <ele>554.300000</ele>
        <time>2009-10-18T17:19:21Z</time>
      </trkpt>
      <trkpt lat="50.573855" lon="6.264546">
        <ele>554.300000</ele>
        <time>2009-10-18T17:19:31Z</time>
      </trkpt>
      <trkpt lat="50.573935" lon="6.264939">
        <ele>554.800000</ele>
        <time>2009-10-18T17:19:39Z</time>
      </trkpt>
      <trkpt lat="50.573976" lon="6.265335">
        <ele>554.800000</ele>
        <time>2009-10-18T17:19:47Z</time>
      </trkpt>
      <trkpt lat="50.573642" lon="6.265586">
        <ele>552.400000</ele>
        <time>2009-10-18T17:19:58Z</time>
      </trkpt>
      <trkpt lat="50.573517" lon="6.265794">
        <ele>550.500000</ele>
        <time>2009-10-18T17:20:04Z</time>
      </trkpt>
      <trkpt lat="50.573537" lon="6.265953">
        <ele>550.000000</ele>
        <time>2009-10-18T17:20:07Z</time>
      </trkpt>
      <trkpt lat="50.573572" lon="6.266151">
        <ele>551.500000</ele>
        <time>2009-10-18T17:20:11Z</time>
      </trkpt>
      <trkpt lat="50.573913" lon="6.267227">
        <ele>541.800000</ele>
        <time>2009-10-18T17:20:35Z</time>
      </trkpt>
      <trkpt lat="50.574063" lon="6.267825">
        <ele>537.000000</ele>
        <time>2009-10-18T17:20:48Z</time>
      </trkpt>
      <trkpt lat="50.574176" lon="6.268239">
        <ele>537.500000</ele>
        <time>2009-10-18T17:20:56Z</time>
      </trkpt>
      <trkpt lat="50.574443" lon="6.269118">
        <ele>534.100000</ele>
        <time>2009-10-18T17:21:16Z</time>
      </trkpt>
      <trkpt lat="50.574639" lon="6.269591">
        <ele>537.500000</ele>
        <time>2009-10-18T17:21:27Z</time>
      </trkpt>
      <trkpt lat="50.574790" lon="6.269997">
        <ele>536.600000</ele>
        <time>2009-10-18T17:21:36Z</time>
      </trkpt>
      <trkpt lat="50.575103" lon="6.270504">
        <ele>538.000000</ele>
        <time>2009-10-18T17:21:50Z</time>
      </trkpt>
      <trkpt lat="50.575432" lon="6.270979">
        <ele>536.600000</ele>
        <time>2009-10-18T17:22:04Z</time>
      </trkpt>
      <trkpt lat="50.575641" lon="6.271209">
        <ele>536.100000</ele>
        <time>2009-10-18T17:22:11Z</time>
      </trkpt>
      <trkpt lat="50.575879" lon="6.271417">
        <ele>532.200000</ele>
        <time>2009-10-18T17:22:20Z</time>
      </trkpt>
      <trkpt lat="50.576143" lon="6.271694">
        <ele>533.200000</ele>
        <time>2009-10-18T17:22:30Z</time>
      </trkpt>
      <trkpt lat="50.576390" lon="6.271894">
        <ele>534.100000</ele>
        <time>2009-10-18T17:22:38Z</time>
      </trkpt>
      <trkpt lat="50.576575" lon="6.271996">
        <ele>530.800000</ele>
        <time>2009-10-18T17:22:44Z</time>
      </trkpt>
      <trkpt lat="50.576622" lon="6.272130">
        <ele>532.200000</ele>
        <time>2009-10-18T17:22:47Z</time>
      </trkpt>
      <trkpt lat="50.576566" lon="6.272400">
        <ele>526.900000</ele>
        <time>2009-10-18T17:22:53Z</time>
      </trkpt>
      <trkpt lat="50.576560" lon="6.272486">
        <ele>525.500000</ele>
        <time>2009-10-18T17:22:55Z</time>
      </trkpt>
      <trkpt lat="50.576576" lon="6.272552">
        <ele>525.500000</ele>
        <time>2009-10-18T17:22:56Z</time>
      </trkpt>
      <trkpt lat="50.576674" lon="6.272658">
        <ele>523.600000</ele>
        <time>2009-10-18T17:23:00Z</time>
      </trkpt>
      <trkpt lat="50.576932" lon="6.272863">
        <ele>525.500000</ele>
        <time>2009-10-18T17:23:09Z</time>
      </trkpt>
      <trkpt lat="50.577026" lon="6.272986">
        <ele>523.600000</ele>
        <time>2009-10-18T17:23:12Z</time>
      </trkpt>
      <trkpt lat="50.577093" lon="6.273207">
        <ele>520.200000</ele>
        <time>2009-10-18T17:23:17Z</time>
      </trkpt>
      <trkpt lat="50.577183" lon="6.273395">
        <ele>521.200000</ele>
        <time>2009-10-18T17:23:22Z</time>
      </trkpt>
      <trkpt lat="50.577265" lon="6.273640">
        <ele>521.700000</ele>
        <time>2009-10-18T17:23:27Z</time>
      </trkpt>
      <trkpt lat="50.577428" lon="6.273991">
        <ele>523.100000</ele>
        <time>2009-10-18T17:23:36Z</time>
      </trkpt>
      <trkpt lat="50.577445" lon="6.274089">
        <ele>519.700000</ele>
        <time>2009-10-18T17:23:38Z</time>
      </trkpt>
      <trkpt lat="50.577432" lon="6.274157">
        <ele>517.300000</ele>
        <time>2009-10-18T17:23:39Z</time>
      </trkpt>
      <trkpt lat="50.577551" lon="6.274449">
        <ele>521.700000</ele>
        <time>2009-10-18T17:23:46Z</time>
      </trkpt>
      <trkpt lat="50.577559" lon="6.274530">
        <ele>523.100000</ele>
        <time>2009-10-18T17:23:48Z</time>
      </trkpt>
      <trkpt lat="50.577638" lon="6.274698">
        <ele>523.100000</ele>
        <time>2009-10-18T17:23:52Z</time>
      </trkpt>
      <trkpt lat="50.577513" lon="6.274612">
        <ele>516.800000</ele>
        <time>2009-10-18T17:23:56Z</time>
      </trkpt>
      <trkpt lat="50.577462" lon="6.274633">
        <ele>511.600000</ele>
        <time>2009-10-18T17:23:58Z</time>
      </trkpt>
      <trkpt lat="50.577589" lon="6.274747">
        <ele>512.500000</ele>
        <time>2009-10-18T17:24:02Z</time>
      </trkpt>
      <trkpt lat="50.577652" lon="6.274869">
        <ele>516.400000</ele>
        <time>2009-10-18T17:24:05Z</time>
      </trkpt>
      <trkpt lat="50.577736" lon="6.274939">
        <ele>520.200000</ele>
        <time>2009-10-18T17:24:08Z</time>
      </trkpt>
      <trkpt lat="50.577769" lon="6.275099">
        <ele>518.800000</ele>
        <time>2009-10-18T17:24:11Z</time>
      </trkpt>
      <trkpt lat="50.577831" lon="6.275158">
        <ele>523.600000</ele>
        <time>2009-10-18T17:24:14Z</time>
      </trkpt>
      <trkpt lat="50.577854" lon="6.275216">
        <ele>524.100000</ele>
        <time>2009-10-18T17:24:15Z</time>
      </trkpt>
      <trkpt lat="50.577839" lon="6.275257">
        <ele>524.100000</ele>
        <time>2009-10-18T17:24:16Z</time>
      </trkpt>
      <trkpt lat="50.577877" lon="6.275351">
        <ele>523.600000</ele>
        <time>2009-10-18T17:24:18Z</time>
      </trkpt>
      <trkpt lat="50.577804" lon="6.275352">
        <ele>522.100000</ele>
        <time>2009-10-18T17:24:20Z</time>
      </trkpt>
      <trkpt lat="50.577823" lon="6.275332">
        <ele>526.500000</ele>
        <time>2009-10-18T17:24:21Z</time>
      </trkpt>
      <trkpt lat="50.577848" lon="6.275424">
        <ele>530.300000</ele>
        <time>2009-10-18T17:24:23Z</time>
      </trkpt>
      <trkpt lat="50.577964" lon="6.275640">
        <ele>529.300000</ele>
        <time>2009-10-18T17:24:29Z</time>
      </trkpt>
      <trkpt lat="50.578006" lon="6.275897">
        <ele>519.700000</ele>
        <time>2009-10-18T17:24:34Z</time>
      </trkpt>
      <trkpt lat="50.578068" lon="6.275981">
        <ele>510.600000</ele>
        <time>2009-10-18T17:24:36Z</time>
      </trkpt>
      <trkpt lat="50.578151" lon="6.276200">
        <ele>502.400000</ele>
        <time>2009-10-18T17:24:41Z</time>
      </trkpt>
      <trkpt lat="50.578217" lon="6.276441">
        <ele>497.600000</ele>
        <time>2009-10-18T17:24:47Z</time>
      </trkpt>
      <trkpt lat="50.578215" lon="6.276554">
        <ele>495.700000</ele>
        <time>2009-10-18T17:24:49Z</time>
      </trkpt>
      <trkpt lat="50.578233" lon="6.276612">
        <ele>491.900000</ele>
        <time>2009-10-18T17:24:50Z</time>
      </trkpt>
      <trkpt lat="50.578281" lon="6.276673">
        <ele>489.900000</ele>
        <time>2009-10-18T17:24:52Z</time>
      </trkpt>
      <trkpt lat="50.578448" lon="6.276689">
        <ele>475.500000</ele>
        <time>2009-10-18T17:24:57Z</time>
      </trkpt>
      <trkpt lat="50.578519" lon="6.276633">
        <ele>473.600000</ele>
        <time>2009-10-18T17:25:00Z</time>
      </trkpt>
      <trkpt lat="50.578583" lon="6.276484">
        <ele>473.600000</ele>
        <time>2009-10-18T17:25:03Z</time>
      </trkpt>
      <trkpt lat="50.578701" lon="6.276484">
        <ele>472.600000</ele>
        <time>2009-10-18T17:25:07Z</time>
      </trkpt>
      <trkpt lat="50.578824" lon="6.276513">
        <ele>480.800000</ele>
        <time>2009-10-18T17:25:11Z</time>
      </trkpt>
      <trkpt lat="50.579038" lon="6.276644">
        <ele>511.600000</ele>
        <time>2009-10-18T17:25:18Z</time>
      </trkpt>
      <trkpt lat="50.579340" lon="6.276503">
        <ele>495.700000</ele>
        <time>2009-10-18T17:25:27Z</time>
      </trkpt>
      <trkpt lat="50.579688" lon="6.276303">
        <ele>478.900000</ele>
        <time>2009-10-18T17:25:39Z</time>
      </trkpt>
      <trkpt lat="50.580188" lon="6.276293">
        <ele>489.400000</ele>
        <time>2009-10-18T17:25:54Z</time>
      </trkpt>
      <trkpt lat="50.580252" lon="6.276335">
        <ele>495.200000</ele>
        <time>2009-10-18T17:25:57Z</time>
      </trkpt>
      <trkpt lat="50.580380" lon="6.276347">
        <ele>498.600000</ele>
        <time>2009-10-18T17:26:00Z</time>
      </trkpt>
      <trkpt lat="50.580475" lon="6.276321">
        <ele>495.700000</ele>
        <time>2009-10-18T17:26:03Z</time>
      </trkpt>
      <trkpt lat="50.580589" lon="6.276345">
        <ele>501.900000</ele>
        <time>2009-10-18T17:26:07Z</time>
      </trkpt>
      <trkpt lat="50.580654" lon="6.276333">
        <ele>511.600000</ele>
        <time>2009-10-18T17:26:09Z</time>
      </trkpt>
      <trkpt lat="50.580745" lon="6.276381">
        <ele>513.500000</ele>
        <time>2009-10-18T17:26:12Z</time>
      </trkpt>
      <trkpt lat="50.580786" lon="6.276474">
        <ele>499.100000</ele>
        <time>2009-10-18T17:26:14Z</time>
      </trkpt>
      <trkpt lat="50.580777" lon="6.276635">
        <ele>500.000000</ele>
        <time>2009-10-18T17:26:17Z</time>
      </trkpt>
      <trkpt lat="50.580801" lon="6.276731">
        <ele>514.400000</ele>
        <time>2009-10-18T17:26:19Z</time>
      </trkpt>
      <trkpt lat="50.580774" lon="6.276653">
        <ele>517.300000</ele>
        <time>2009-10-18T17:26:21Z</time>
      </trkpt>
      <trkpt lat="50.580772" lon="6.276478">
        <ele>507.200000</ele>
        <time>2009-10-18T17:26:25Z</time>
      </trkpt>
      <trkpt lat="50.580793" lon="6.276576">
        <ele>511.600000</ele>
        <time>2009-10-18T17:26:27Z</time>
      </trkpt>
      <trkpt lat="50.580718" lon="6.276693">
        <ele>511.100000</ele>
        <time>2009-10-18T17:26:30Z</time>
      </trkpt>
      <trkpt lat="50.580776" lon="6.276832">
        <ele>514.400000</ele>
        <time>2009-10-18T17:26:33Z</time>
      </trkpt>
      <trkpt lat="50.580678" lon="6.276889">
        <ele>508.200000</ele>
        <time>2009-10-18T17:26:36Z</time>
      </trkpt>
      <trkpt lat="50.580590" lon="6.277031">
        <ele>513.500000</ele>
        <time>2009-10-18T17:26:40Z</time>
      </trkpt>
      <trkpt lat="50.580441" lon="6.277138">
        <ele>511.600000</ele>
        <time>2009-10-18T17:26:45Z</time>
      </trkpt>
      <trkpt lat="50.580359" lon="6.277105">
        <ele>504.800000</ele>
        <time>2009-10-18T17:26:48Z</time>
      </trkpt>
      <trkpt lat="50.580173" lon="6.277119">
        <ele>488.500000</ele>
        <time>2009-10-18T17:26:54Z</time>
      </trkpt>
      <trkpt lat="50.579931" lon="6.277076">
        <ele>476.500000</ele>
        <time>2009-10-18T17:27:01Z</time>
      </trkpt>
      <trkpt lat="50.579743" lon="6.277125">
        <ele>480.800000</ele>
        <time>2009-10-18T17:27:07Z</time>
      </trkpt>
      <trkpt lat="50.579581" lon="6.277136">
        <ele>490.400000</ele>
        <time>2009-10-18T17:27:12Z</time>
      </trkpt>
      <trkpt lat="50.579522" lon="6.277190">
        <ele>492.300000</ele>
        <time>2009-10-18T17:27:14Z</time>
      </trkpt>
      <trkpt lat="50.579463" lon="6.277209">
        <ele>493.800000</ele>
        <time>2009-10-18T17:27:16Z</time>
      </trkpt>
      <trkpt lat="50.579244" lon="6.277438">
        <ele>522.600000</ele>
        <time>2009-10-18T17:27:24Z</time>
      </trkpt>
      <trkpt lat="50.579114" lon="6.277483">
        <ele>524.100000</ele>
        <time>2009-10-18T17:27:28Z</time>
      </trkpt>
      <trkpt lat="50.579019" lon="6.277474">
        <ele>518.300000</ele>
        <time>2009-10-18T17:27:31Z</time>
      </trkpt>
      <trkpt lat="50.578932" lon="6.277517">
        <ele>516.400000</ele>
        <time>2009-10-18T17:27:34Z</time>
      </trkpt>
      <trkpt lat="50.578862" lon="6.277511">
        <ele>509.200000</ele>
        <time>2009-10-18T17:27:36Z</time>
      </trkpt>
      <trkpt lat="50.578809" lon="6.277473">
        <ele>503.400000</ele>
        <time>2009-10-18T17:27:38Z</time>
      </trkpt>
      <trkpt lat="50.578482" lon="6.277526">
        <ele>492.300000</ele>
        <time>2009-10-18T17:27:48Z</time>
      </trkpt>
      <trkpt lat="50.578296" lon="6.277606">
        <ele>485.600000</ele>
        <time>2009-10-18T17:27:54Z</time>
      </trkpt>
      <trkpt lat="50.578182" lon="6.277701">
        <ele>478.400000</ele>
        <time>2009-10-18T17:27:58Z</time>
      </trkpt>
      <trkpt lat="50.578168" lon="6.277760">
        <ele>497.100000</ele>
        <time>2009-10-18T17:27:59Z</time>
      </trkpt>
      <trkpt lat="50.577836" lon="6.278415">
        <ele>478.400000</ele>
        <time>2009-10-18T17:28:16Z</time>
      </trkpt>
      <trkpt lat="50.577622" lon="6.278746">
        <ele>472.100000</ele>
        <time>2009-10-18T17:28:25Z</time>
      </trkpt>
      <trkpt lat="50.577500" lon="6.278996">
        <ele>474.500000</ele>
        <time>2009-10-18T17:28:31Z</time>
      </trkpt>
      <trkpt lat="50.577162" lon="6.279417">
        <ele>477.000000</ele>
        <time>2009-10-18T17:28:45Z</time>
      </trkpt>
      <trkpt lat="50.577020" lon="6.279527">
        <ele>475.000000</ele>
        <time>2009-10-18T17:28:50Z</time>
      </trkpt>
      <trkpt lat="50.576927" lon="6.279641">
        <ele>478.900000</ele>
        <time>2009-10-18T17:28:53Z</time>
      </trkpt>
      <trkpt lat="50.576816" lon="6.279735">
        <ele>478.400000</ele>
        <time>2009-10-18T17:28:57Z</time>
      </trkpt>
      <trkpt lat="50.576730" lon="6.279851">
        <ele>480.300000</ele>
        <time>2009-10-18T17:29:01Z</time>
      </trkpt>
      <trkpt lat="50.576630" lon="6.279931">
        <ele>478.900000</ele>
        <time>2009-10-18T17:29:04Z</time>
      </trkpt>
      <trkpt lat="50.576604" lon="6.280002">
        <ele>458.700000</ele>
        <time>2009-10-18T17:29:06Z</time>
      </trkpt>
      <trkpt lat="50.576637" lon="6.279996">
        <ele>459.200000</ele>
        <time>2009-10-18T17:29:07Z</time>
      </trkpt>
      <trkpt lat="50.576593" lon="6.279981">
        <ele>459.600000</ele>
        <time>2009-10-18T17:29:08Z</time>
      </trkpt>
      <trkpt lat="50.576499" lon="6.280050">
        <ele>461.100000</ele>
        <time>2009-10-18T17:29:11Z</time>
      </trkpt>
      <trkpt lat="50.576305" lon="6.280338">
        <ele>482.200000</ele>
        <time>2009-10-18T17:29:20Z</time>
      </trkpt>
      <trkpt lat="50.575764" lon="6.280568">
        <ele>471.700000</ele>
        <time>2009-10-18T17:29:37Z</time>
      </trkpt>
      <trkpt lat="50.575517" lon="6.280802">
        <ele>467.800000</ele>
        <time>2009-10-18T17:29:46Z</time>
      </trkpt>
      <trkpt lat="50.575465" lon="6.280884">
        <ele>458.700000</ele>
        <time>2009-10-18T17:29:48Z</time>
      </trkpt>
      <trkpt lat="50.575400" lon="6.281006">
        <ele>454.400000</ele>
        <time>2009-10-18T17:29:51Z</time>
      </trkpt>
      <trkpt lat="50.575296" lon="6.281286">
        <ele>462.100000</ele>
        <time>2009-10-18T17:29:58Z</time>
      </trkpt>
      <trkpt lat="50.575299" lon="6.281357">
        <ele>463.500000</ele>
        <time>2009-10-18T17:29:59Z</time>
      </trkpt>
      <trkpt lat="50.575242" lon="6.281594">
        <ele>465.900000</ele>
        <time>2009-10-18T17:30:04Z</time>
      </trkpt>
      <trkpt lat="50.575160" lon="6.281749">
        <ele>464.000000</ele>
        <time>2009-10-18T17:30:08Z</time>
      </trkpt>
      <trkpt lat="50.574995" lon="6.281958">
        <ele>453.900000</ele>
        <time>2009-10-18T17:30:15Z</time>
      </trkpt>
      <trkpt lat="50.574933" lon="6.282070">
        <ele>449.100000</ele>
        <time>2009-10-18T17:30:17Z</time>
      </trkpt>
      <trkpt lat="50.574883" lon="6.282224">
        <ele>448.600000</ele>
        <time>2009-10-18T17:30:21Z</time>
      </trkpt>
      <trkpt lat="50.574881" lon="6.282465">
        <ele>446.200000</ele>
        <time>2009-10-18T17:30:26Z</time>
      </trkpt>
      <trkpt lat="50.574821" lon="6.282895">
        <ele>442.800000</ele>
        <time>2009-10-18T17:30:34Z</time>
      </trkpt>
      <trkpt lat="50.574687" lon="6.283461">
        <ele>447.200000</ele>
        <time>2009-10-18T17:30:46Z</time>
      </trkpt>
      <trkpt lat="50.574638" lon="6.283462">
        <ele>442.800000</ele>
        <time>2009-10-18T17:30:48Z</time>
      </trkpt>
      <trkpt lat="50.574618" lon="6.283425">
        <ele>441.900000</ele>
        <time>2009-10-18T17:30:49Z</time>
      </trkpt>
      <trkpt lat="50.574455" lon="6.283355">
        <ele>447.200000</ele>
        <time>2009-10-18T17:30:54Z</time>
      </trkpt>
      <trkpt lat="50.574392" lon="6.283626">
        <ele>441.900000</ele>
        <time>2009-10-18T17:30:59Z</time>
      </trkpt>
      <trkpt lat="50.574368" lon="6.283654">
        <ele>441.400000</ele>
        <time>2009-10-18T17:31:00Z</time>
      </trkpt>
      <trkpt lat="50.574301" lon="6.283884">
        <ele>443.300000</ele>
        <time>2009-10-18T17:31:05Z</time>
      </trkpt>
      <trkpt lat="50.574197" lon="6.284125">
        <ele>445.200000</ele>
        <time>2009-10-18T17:31:11Z</time>
      </trkpt>
      <trkpt lat="50.573942" lon="6.284560">
        <ele>464.900000</ele>
        <time>2009-10-18T17:31:23Z</time>
      </trkpt>
      <trkpt lat="50.573875" lon="6.284592">
        <ele>460.100000</ele>
        <time>2009-10-18T17:31:25Z</time>
      </trkpt>
      <trkpt lat="50.573769" lon="6.284833">
        <ele>467.800000</ele>
        <time>2009-10-18T17:31:31Z</time>
      </trkpt>
      <trkpt lat="50.573581" lon="6.284967">
        <ele>485.100000</ele>
        <time>2009-10-18T17:31:37Z</time>
      </trkpt>
      <trkpt lat="50.573541" lon="6.284979">
        <ele>489.000000</ele>
        <time>2009-10-18T17:31:38Z</time>
      </trkpt>
      <trkpt lat="50.573506" lon="6.284886">
        <ele>485.100000</ele>
        <time>2009-10-18T17:31:40Z</time>
      </trkpt>
      <trkpt lat="50.573453" lon="6.284546">
        <ele>455.800000</ele>
        <time>2009-10-18T17:31:47Z</time>
      </trkpt>
      <trkpt lat="50.573446" lon="6.284314">
        <ele>440.900000</ele>
        <time>2009-10-18T17:31:52Z</time>
      </trkpt>
      <trkpt lat="50.573383" lon="6.283967">
        <ele>443.800000</ele>
        <time>2009-10-18T17:31:59Z</time>
      </trkpt>
      <trkpt lat="50.573274" lon="6.283472">
        <ele>450.500000</ele>
        <time>2009-10-18T17:32:09Z</time>
      </trkpt>
      <trkpt lat="50.573023" lon="6.283126">
        <ele>464.500000</ele>
        <time>2009-10-18T17:32:20Z</time>
      </trkpt>
      <trkpt lat="50.572914" lon="6.282812">
        <ele>456.800000</ele>
        <time>2009-10-18T17:32:27Z</time>
      </trkpt>
      <trkpt lat="50.572590" lon="6.282267">
        <ele>461.600000</ele>
        <time>2009-10-18T17:32:41Z</time>
      </trkpt>
      <trkpt lat="50.572283" lon="6.282243">
        <ele>466.400000</ele>
        <time>2009-10-18T17:32:51Z</time>
      </trkpt>
      <trkpt lat="50.571967" lon="6.282132">
        <ele>468.300000</ele>
        <time>2009-10-18T17:33:01Z</time>
      </trkpt>
      <trkpt lat="50.571733" lon="6.282102">
        <ele>469.300000</ele>
        <time>2009-10-18T17:33:08Z</time>
      </trkpt>
      <trkpt lat="50.571641" lon="6.282111">
        <ele>467.800000</ele>
        <time>2009-10-18T17:33:11Z</time>
      </trkpt>
      <trkpt lat="50.571288" lon="6.282229">
        <ele>468.800000</ele>
        <time>2009-10-18T17:33:22Z</time>
      </trkpt>
      <trkpt lat="50.571218" lon="6.282280">
        <ele>468.800000</ele>
        <time>2009-10-18T17:33:24Z</time>
      </trkpt>
      <trkpt lat="50.571094" lon="6.282294">
        <ele>468.300000</ele>
        <time>2009-10-18T17:33:28Z</time>
      </trkpt>
      <trkpt lat="50.570997" lon="6.282248">
        <ele>468.300000</ele>
        <time>2009-10-18T17:33:31Z</time>
      </trkpt>
      <trkpt lat="50.570903" lon="6.282132">
        <ele>466.900000</ele>
        <time>2009-10-18T17:33:35Z</time>
      </trkpt>
      <trkpt lat="50.570845" lon="6.282002">
        <ele>465.900000</ele>
        <time>2009-10-18T17:33:38Z</time>
      </trkpt>
      <trkpt lat="50.570756" lon="6.281661">
        <ele>460.600000</ele>
        <time>2009-10-18T17:33:45Z</time>
      </trkpt>
      <trkpt lat="50.570648" lon="6.281385">
        <ele>460.600000</ele>
        <time>2009-10-18T17:33:52Z</time>
      </trkpt>
      <trkpt lat="50.570595" lon="6.281199">
        <ele>465.900000</ele>
        <time>2009-10-18T17:33:56Z</time>
      </trkpt>
      <trkpt lat="50.570521" lon="6.281206">
        <ele>469.700000</ele>
        <time>2009-10-18T17:33:58Z</time>
      </trkpt>
      <trkpt lat="50.570505" lon="6.281163">
        <ele>465.900000</ele>
        <time>2009-10-18T17:33:59Z</time>
      </trkpt>
      <trkpt lat="50.570528" lon="6.281135">
        <ele>465.900000</ele>
        <time>2009-10-18T17:34:00Z</time>
      </trkpt>
      <trkpt lat="50.570528" lon="6.281076">
        <ele>465.400000</ele>
        <time>2009-10-18T17:34:01Z</time>
      </trkpt>
      <trkpt lat="50.570517" lon="6.281081">
        <ele>467.800000</ele>
        <time>2009-10-18T17:34:01Z</time>
      </trkpt>
      <trkpt lat="50.570473" lon="6.281122">
        <ele>470.200000</ele>
        <time>2009-10-18T17:34:03Z</time>
      </trkpt>
      <trkpt lat="50.570420" lon="6.281468">
        <ele>464.000000</ele>
        <time>2009-10-18T17:34:10Z</time>
      </trkpt>
      <trkpt lat="50.570438" lon="6.281623">
        <ele>466.400000</ele>
        <time>2009-10-18T17:34:13Z</time>
      </trkpt>
      <trkpt lat="50.570430" lon="6.281728">
        <ele>464.900000</ele>
        <time>2009-10-18T17:34:15Z</time>
      </trkpt>
      <trkpt lat="50.570466" lon="6.281849">
        <ele>466.400000</ele>
        <time>2009-10-18T17:34:18Z</time>
      </trkpt>
      <trkpt lat="50.570437" lon="6.282095">
        <ele>464.000000</ele>
        <time>2009-10-18T17:34:23Z</time>
      </trkpt>
      <trkpt lat="50.570361" lon="6.282374">
        <ele>464.000000</ele>
        <time>2009-10-18T17:34:29Z</time>
      </trkpt>
      <trkpt lat="50.570179" lon="6.282649">
        <ele>464.900000</ele>
        <time>2009-10-18T17:34:36Z</time>
      </trkpt>
      <trkpt lat="50.569879" lon="6.282978">
        <ele>466.900000</ele>
        <time>2009-10-18T17:34:48Z</time>
      </trkpt>
      <trkpt lat="50.569752" lon="6.283172">
        <ele>465.900000</ele>
        <time>2009-10-18T17:34:53Z</time>
      </trkpt>
      <trkpt lat="50.569621" lon="6.283483">
        <ele>474.100000</ele>
        <time>2009-10-18T17:35:01Z</time>
      </trkpt>
      <trkpt lat="50.569547" lon="6.283613">
        <ele>470.200000</ele>
        <time>2009-10-18T17:35:04Z</time>
      </trkpt>
      <trkpt lat="50.569411" lon="6.283944">
        <ele>465.400000</ele>
        <time>2009-10-18T17:35:12Z</time>
      </trkpt>
      <trkpt lat="50.569320" lon="6.284221">
        <ele>464.900000</ele>
        <time>2009-10-18T17:35:18Z</time>
      </trkpt>
      <trkpt lat="50.569132" lon="6.284949">
        <ele>471.700000</ele>
        <time>2009-10-18T17:35:33Z</time>
      </trkpt>
      <trkpt lat="50.569115" lon="6.284980">
        <ele>474.500000</ele>
        <time>2009-10-18T17:35:34Z</time>
      </trkpt>
      <trkpt lat="50.569069" lon="6.284928">
        <ele>478.400000</ele>
        <time>2009-10-18T17:35:36Z</time>
      </trkpt>
      <trkpt lat="50.568868" lon="6.285727">
        <ele>478.400000</ele>
        <time>2009-10-18T17:35:53Z</time>
      </trkpt>
      <trkpt lat="50.568780" lon="6.285887">
        <ele>476.000000</ele>
        <time>2009-10-18T17:35:57Z</time>
      </trkpt>
      <trkpt lat="50.568700" lon="6.286017">
        <ele>475.000000</ele>
        <time>2009-10-18T17:36:00Z</time>
      </trkpt>
      <trkpt lat="50.568418" lon="6.286200">
        <ele>468.300000</ele>
        <time>2009-10-18T17:36:10Z</time>
      </trkpt>
      <trkpt lat="50.568358" lon="6.286271">
        <ele>471.200000</ele>
        <time>2009-10-18T17:36:12Z</time>
      </trkpt>
      <trkpt lat="50.568327" lon="6.286357">
        <ele>477.400000</ele>
        <time>2009-10-18T17:36:14Z</time>
      </trkpt>
      <trkpt lat="50.568220" lon="6.286426">
        <ele>476.000000</ele>
        <time>2009-10-18T17:36:18Z</time>
      </trkpt>
      <trkpt lat="50.567976" lon="6.286678">
        <ele>473.100000</ele>
        <time>2009-10-18T17:36:27Z</time>
      </trkpt>
      <trkpt lat="50.567997" lon="6.286650">
        <ele>481.300000</ele>
        <time>2009-10-18T17:36:28Z</time>
      </trkpt>
      <trkpt lat="50.567937" lon="6.286691">
        <ele>477.900000</ele>
        <time>2009-10-18T17:36:30Z</time>
      </trkpt>
      <trkpt lat="50.567834" lon="6.286882">
        <ele>476.500000</ele>
        <time>2009-10-18T17:36:35Z</time>
      </trkpt>
      <trkpt lat="50.567725" lon="6.287026">
        <ele>474.500000</ele>
        <time>2009-10-18T17:36:39Z</time>
      </trkpt>
      <trkpt lat="50.567656" lon="6.287389">
        <ele>489.900000</ele>
        <time>2009-10-18T17:36:46Z</time>
      </trkpt>
      <trkpt lat="50.567485" lon="6.287837">
        <ele>484.200000</ele>
        <time>2009-10-18T17:36:57Z</time>
      </trkpt>
      <trkpt lat="50.567298" lon="6.288537">
        <ele>490.400000</ele>
        <time>2009-10-18T17:37:12Z</time>
      </trkpt>
      <trkpt lat="50.567259" lon="6.288539">
        <ele>497.100000</ele>
        <time>2009-10-18T17:37:13Z</time>
      </trkpt>
      <trkpt lat="50.567255" lon="6.288496">
        <ele>496.200000</ele>
        <time>2009-10-18T17:37:14Z</time>
      </trkpt>
      <trkpt lat="50.567293" lon="6.288484">
        <ele>495.700000</ele>
        <time>2009-10-18T17:37:15Z</time>
      </trkpt>
      <trkpt lat="50.567236" lon="6.288524">
        <ele>489.400000</ele>
        <time>2009-10-18T17:37:17Z</time>
      </trkpt>
      <trkpt lat="50.567264" lon="6.288498">
        <ele>489.000000</ele>
        <time>2009-10-18T17:37:18Z</time>
      </trkpt>
      <trkpt lat="50.567248" lon="6.288466">
        <ele>487.000000</ele>
        <time>2009-10-18T17:37:19Z</time>
      </trkpt>
      <trkpt lat="50.567258" lon="6.288511">
        <ele>488.500000</ele>
        <time>2009-10-18T17:37:20Z</time>
      </trkpt>
      <trkpt lat="50.567304" lon="6.288501">
        <ele>488.500000</ele>
        <time>2009-10-18T17:37:21Z</time>
      </trkpt>
      <trkpt lat="50.567304" lon="6.288567">
        <ele>494.700000</ele>
        <time>2009-10-18T17:37:22Z</time>
      </trkpt>
      <trkpt lat="50.567273" lon="6.288465">
        <ele>497.100000</ele>
        <time>2009-10-18T17:37:24Z</time>
      </trkpt>
      <trkpt lat="50.567173" lon="6.288386">
        <ele>495.700000</ele>
        <time>2009-10-18T17:37:28Z</time>
      </trkpt>
      <trkpt lat="50.567252" lon="6.288447">
        <ele>488.500000</ele>
        <time>2009-10-18T17:37:31Z</time>
      </trkpt>
      <trkpt lat="50.567225" lon="6.288457">
        <ele>482.200000</ele>
        <time>2009-10-18T17:37:32Z</time>
      </trkpt>
      <trkpt lat="50.567294" lon="6.288481">
        <ele>489.900000</ele>
        <time>2009-10-18T17:37:34Z</time>
      </trkpt>
      <trkpt lat="50.567279" lon="6.288437">
        <ele>489.900000</ele>
        <time>2009-10-18T17:37:35Z</time>
      </trkpt>
      <trkpt lat="50.567211" lon="6.288419">
        <ele>484.600000</ele>
        <time>2009-10-18T17:37:37Z</time>
      </trkpt>
      <trkpt lat="50.567269" lon="6.288469">
        <ele>486.600000</ele>
        <time>2009-10-18T17:37:39Z</time>
      </trkpt>
      <trkpt lat="50.567299" lon="6.288485">
        <ele>493.800000</ele>
        <time>2009-10-18T17:37:40Z</time>
      </trkpt>
      <trkpt lat="50.567283" lon="6.288543">
        <ele>495.700000</ele>
        <time>2009-10-18T17:37:41Z</time>
      </trkpt>
      <trkpt lat="50.567292" lon="6.288581">
        <ele>501.900000</ele>
        <time>2009-10-18T17:37:42Z</time>
      </trkpt>
      <trkpt lat="50.567278" lon="6.288536">
        <ele>491.900000</ele>
        <time>2009-10-18T17:37:43Z</time>
      </trkpt>
      <trkpt lat="50.567266" lon="6.288561">
        <ele>491.400000</ele>
        <time>2009-10-18T17:37:43Z</time>
      </trkpt>
      <trkpt lat="50.567287" lon="6.288551">
        <ele>494.700000</ele>
        <time>2009-10-18T17:37:44Z</time>
      </trkpt>
      <trkpt lat="50.567290" lon="6.288590">
        <ele>501.500000</ele>
        <time>2009-10-18T17:37:45Z</time>
      </trkpt>
      <trkpt lat="50.567277" lon="6.288504">
        <ele>495.200000</ele>
        <time>2009-10-18T17:37:47Z</time>
      </trkpt>
      <trkpt lat="50.567204" lon="6.288841">
        <ele>496.200000</ele>
        <time>2009-10-18T17:37:54Z</time>
      </trkpt>
      <trkpt lat="50.567106" lon="6.289090">
        <ele>494.300000</ele>
        <time>2009-10-18T17:37:59Z</time>
      </trkpt>
      <trkpt lat="50.566982" lon="6.289275">
        <ele>487.000000</ele>
        <time>2009-10-18T17:38:05Z</time>
      </trkpt>
      <trkpt lat="50.566757" lon="6.289464">
        <ele>489.000000</ele>
        <time>2009-10-18T17:38:13Z</time>
      </trkpt>
      <trkpt lat="50.566543" lon="6.289532">
        <ele>491.400000</ele>
        <time>2009-10-18T17:38:19Z</time>
      </trkpt>
      <trkpt lat="50.566340" lon="6.289682">
        <ele>492.300000</ele>
        <time>2009-10-18T17:38:26Z</time>
      </trkpt>
      <trkpt lat="50.565770" lon="6.290037">
        <ele>501.900000</ele>
        <time>2009-10-18T17:38:45Z</time>
      </trkpt>
      <trkpt lat="50.565672" lon="6.290082">
        <ele>503.900000</ele>
        <time>2009-10-18T17:38:48Z</time>
      </trkpt>
      <trkpt lat="50.565576" lon="6.290068">
        <ele>504.800000</ele>
        <time>2009-10-18T17:38:51Z</time>
      </trkpt>
      <trkpt lat="50.565494" lon="6.290013">
        <ele>503.900000</ele>
        <time>2009-10-18T17:38:54Z</time>
      </trkpt>
      <trkpt lat="50.565461" lon="6.290115">
        <ele>508.200000</ele>
        <time>2009-10-18T17:38:56Z</time>
      </trkpt>
      <trkpt lat="50.565447" lon="6.290110">
        <ele>509.600000</ele>
        <time>2009-10-18T17:38:57Z</time>
      </trkpt>
      <trkpt lat="50.565437" lon="6.290102">
        <ele>509.600000</ele>
        <time>2009-10-18T17:38:57Z</time>
      </trkpt>
      <trkpt lat="50.565476" lon="6.290040">
        <ele>505.800000</ele>
        <time>2009-10-18T17:38:59Z</time>
      </trkpt>
      <trkpt lat="50.565526" lon="6.289853">
        <ele>504.800000</ele>
        <time>2009-10-18T17:39:03Z</time>
      </trkpt>
      <trkpt lat="50.565715" lon="6.289543">
        <ele>508.700000</ele>
        <time>2009-10-18T17:39:11Z</time>
      </trkpt>
      <trkpt lat="50.565845" lon="6.289282">
        <ele>508.700000</ele>
        <time>2009-10-18T17:39:18Z</time>
      </trkpt>
      <trkpt lat="50.565915" lon="6.289212">
        <ele>508.700000</ele>
        <time>2009-10-18T17:39:20Z</time>
      </trkpt>
      <trkpt lat="50.566031" lon="6.288795">
        <ele>516.800000</ele>
        <time>2009-10-18T17:39:29Z</time>
      </trkpt>
      <trkpt lat="50.566039" lon="6.288661">
        <ele>517.300000</ele>
        <time>2009-10-18T17:39:32Z</time>
      </trkpt>
      <trkpt lat="50.566153" lon="6.288186">
        <ele>519.200000</ele>
        <time>2009-10-18T17:39:42Z</time>
      </trkpt>
      <trkpt lat="50.566163" lon="6.287826">
        <ele>517.800000</ele>
        <time>2009-10-18T17:39:49Z</time>
      </trkpt>
      <trkpt lat="50.566214" lon="6.287466">
        <ele>520.700000</ele>
        <time>2009-10-18T17:39:56Z</time>
      </trkpt>
      <trkpt lat="50.566198" lon="6.287212">
        <ele>523.100000</ele>
        <time>2009-10-18T17:40:01Z</time>
      </trkpt>
      <trkpt lat="50.566167" lon="6.287052">
        <ele>522.600000</ele>
        <time>2009-10-18T17:40:05Z</time>
      </trkpt>
      <trkpt lat="50.566093" lon="6.286388">
        <ele>525.500000</ele>
        <time>2009-10-18T17:40:18Z</time>
      </trkpt>
      <trkpt lat="50.566017" lon="6.285453">
        <ele>526.500000</ele>
        <time>2009-10-18T17:40:36Z</time>
      </trkpt>
      <trkpt lat="50.566069" lon="6.284941">
        <ele>532.700000</ele>
        <time>2009-10-18T17:40:46Z</time>
      </trkpt>
      <trkpt lat="50.566137" lon="6.284637">
        <ele>534.100000</ele>
        <time>2009-10-18T17:40:53Z</time>
      </trkpt>
      <trkpt lat="50.566115" lon="6.284381">
        <ele>531.700000</ele>
        <time>2009-10-18T17:40:58Z</time>
      </trkpt>
      <trkpt lat="50.566266" lon="6.284011">
        <ele>534.100000</ele>
        <time>2009-10-18T17:41:07Z</time>
      </trkpt>
      <trkpt lat="50.566223" lon="6.283829">
        <ele>536.600000</ele>
        <time>2009-10-18T17:41:10Z</time>
      </trkpt>
      <trkpt lat="50.566115" lon="6.283525">
        <ele>539.400000</ele>
        <time>2009-10-18T17:41:17Z</time>
      </trkpt>
      <trkpt lat="50.566064" lon="6.283477">
        <ele>537.000000</ele>
        <time>2009-10-18T17:41:19Z</time>
      </trkpt>
      <trkpt lat="50.565938" lon="6.283444">
        <ele>538.000000</ele>
        <time>2009-10-18T17:41:23Z</time>
      </trkpt>
      <trkpt lat="50.565757" lon="6.283053">
        <ele>544.200000</ele>
        <time>2009-10-18T17:41:32Z</time>
      </trkpt>
      <trkpt lat="50.565672" lon="6.282794">
        <ele>542.800000</ele>
        <time>2009-10-18T17:41:38Z</time>
      </trkpt>
      <trkpt lat="50.565515" lon="6.282430">
        <ele>539.000000</ele>
        <time>2009-10-18T17:41:47Z</time>
      </trkpt>
      <trkpt lat="50.565201" lon="6.282050">
        <ele>533.700000</ele>
        <time>2009-10-18T17:41:59Z</time>
      </trkpt>
      <trkpt lat="50.564668" lon="6.281146">
        <ele>524.100000</ele>
        <time>2009-10-18T17:42:23Z</time>
      </trkpt>
      <trkpt lat="50.564517" lon="6.280946">
        <ele>519.200000</ele>
        <time>2009-10-18T17:42:29Z</time>
      </trkpt>
      <trkpt lat="50.564480" lon="6.280857">
        <ele>518.300000</ele>
        <time>2009-10-18T17:42:31Z</time>
      </trkpt>
      <trkpt lat="50.564409" lon="6.280758">
        <ele>517.300000</ele>
        <time>2009-10-18T17:42:34Z</time>
      </trkpt>
      <trkpt lat="50.564307" lon="6.280487">
        <ele>516.800000</ele>
        <time>2009-10-18T17:42:41Z</time>
      </trkpt>
      <trkpt lat="50.564291" lon="6.280268">
        <ele>514.400000</ele>
        <time>2009-10-18T17:42:45Z</time>
      </trkpt>
      <trkpt lat="50.564238" lon="6.280133">
        <ele>517.300000</ele>
        <time>2009-10-18T17:42:48Z</time>
      </trkpt>
      <trkpt lat="50.564106" lon="6.279933">
        <ele>516.800000</ele>
        <time>2009-10-18T17:42:54Z</time>
      </trkpt>
      <trkpt lat="50.563960" lon="6.279800">
        <ele>517.300000</ele>
        <time>2009-10-18T17:42:59Z</time>
      </trkpt>
      <trkpt lat="50.563890" lon="6.279782">
        <ele>513.000000</ele>
        <time>2009-10-18T17:43:01Z</time>
      </trkpt>
      <trkpt lat="50.563824" lon="6.279831">
        <ele>510.100000</ele>
        <time>2009-10-18T17:43:03Z</time>
      </trkpt>
      <trkpt lat="50.563736" lon="6.279853">
        <ele>510.600000</ele>
        <time>2009-10-18T17:43:06Z</time>
      </trkpt>
      <trkpt lat="50.563509" lon="6.279536">
        <ele>502.900000</ele>
        <time>2009-10-18T17:43:16Z</time>
      </trkpt>
      <trkpt lat="50.563412" lon="6.279314">
        <ele>501.500000</ele>
        <time>2009-10-18T17:43:21Z</time>
      </trkpt>
      <trkpt lat="50.563407" lon="6.279115">
        <ele>501.000000</ele>
        <time>2009-10-18T17:43:25Z</time>
      </trkpt>
      <trkpt lat="50.563371" lon="6.278890">
        <ele>498.100000</ele>
        <time>2009-10-18T17:43:29Z</time>
      </trkpt>
      <trkpt lat="50.563328" lon="6.278749">
        <ele>495.700000</ele>
        <time>2009-10-18T17:43:32Z</time>
      </trkpt>
      <trkpt lat="50.563291" lon="6.278673">
        <ele>495.200000</ele>
        <time>2009-10-18T17:43:34Z</time>
      </trkpt>
      <trkpt lat="50.563180" lon="6.278557">
        <ele>494.300000</ele>
        <time>2009-10-18T17:43:38Z</time>
      </trkpt>
      <trkpt lat="50.563072" lon="6.278396">
        <ele>495.700000</ele>
        <time>2009-10-18T17:43:43Z</time>
      </trkpt>
      <trkpt lat="50.563042" lon="6.278293">
        <ele>497.100000</ele>
        <time>2009-10-18T17:43:45Z</time>
      </trkpt>
      <trkpt lat="50.563042" lon="6.278089">
        <ele>505.300000</ele>
        <time>2009-10-18T17:43:49Z</time>
      </trkpt>
      <trkpt lat="50.563163" lon="6.277961">
        <ele>503.400000</ele>
        <time>2009-10-18T17:43:54Z</time>
      </trkpt>
      <trkpt lat="50.563199" lon="6.277959">
        <ele>504.300000</ele>
        <time>2009-10-18T17:43:55Z</time>
      </trkpt>
      <trkpt lat="50.563248" lon="6.277845">
        <ele>513.500000</ele>
        <time>2009-10-18T17:43:58Z</time>
      </trkpt>
      <trkpt lat="50.563415" lon="6.277791">
        <ele>517.300000</ele>
        <time>2009-10-18T17:44:03Z</time>
      </trkpt>
      <trkpt lat="50.563611" lon="6.277592">
        <ele>519.700000</ele>
        <time>2009-10-18T17:44:10Z</time>
      </trkpt>
      <trkpt lat="50.563699" lon="6.277558">
        <ele>518.800000</ele>
        <time>2009-10-18T17:44:13Z</time>
      </trkpt>
      <trkpt lat="50.563719" lon="6.277505">
        <ele>520.200000</ele>
        <time>2009-10-18T17:44:14Z</time>
      </trkpt>
      <trkpt lat="50.563713" lon="6.277404">
        <ele>521.700000</ele>
        <time>2009-10-18T17:44:16Z</time>
      </trkpt>
      <trkpt lat="50.563750" lon="6.277282">
        <ele>525.000000</ele>
        <time>2009-10-18T17:44:19Z</time>
      </trkpt>
      <trkpt lat="50.563818" lon="6.277394">
        <ele>541.800000</ele>
        <time>2009-10-18T17:44:22Z</time>
      </trkpt>
      <trkpt lat="50.563718" lon="6.277184">
        <ele>527.400000</ele>
        <time>2009-10-18T17:44:27Z</time>
      </trkpt>
      <trkpt lat="50.563721" lon="6.277039">
        <ele>525.500000</ele>
        <time>2009-10-18T17:44:30Z</time>
      </trkpt>
      <trkpt lat="50.563672" lon="6.276852">
        <ele>527.400000</ele>
        <time>2009-10-18T17:44:34Z</time>
      </trkpt>
      <trkpt lat="50.563703" lon="6.276587">
        <ele>529.800000</ele>
        <time>2009-10-18T17:44:39Z</time>
      </trkpt>
      <trkpt lat="50.563723" lon="6.276024">
        <ele>534.600000</ele>
        <time>2009-10-18T17:44:50Z</time>
      </trkpt>
      <trkpt lat="50.563802" lon="6.275519">
        <ele>537.000000</ele>
        <time>2009-10-18T17:45:00Z</time>
      </trkpt>
      <trkpt lat="50.563907" lon="6.275215">
        <ele>537.000000</ele>
        <time>2009-10-18T17:45:07Z</time>
      </trkpt>
      <trkpt lat="50.563954" lon="6.275187">
        <ele>531.300000</ele>
        <time>2009-10-18T17:45:09Z</time>
      </trkpt>
      <trkpt lat="50.564113" lon="6.274880">
        <ele>538.500000</ele>
        <time>2009-10-18T17:45:16Z</time>
      </trkpt>
      <trkpt lat="50.564327" lon="6.274827">
        <ele>540.900000</ele>
        <time>2009-10-18T17:45:23Z</time>
      </trkpt>
      <trkpt lat="50.564390" lon="6.274848">
        <ele>540.900000</ele>
        <time>2009-10-18T17:45:25Z</time>
      </trkpt>
      <trkpt lat="50.564491" lon="6.274832">
        <ele>542.300000</ele>
        <time>2009-10-18T17:45:28Z</time>
      </trkpt>
      <trkpt lat="50.564940" lon="6.274573">
        <ele>545.700000</ele>
        <time>2009-10-18T17:45:43Z</time>
      </trkpt>
      <trkpt lat="50.565222" lon="6.274283">
        <ele>547.100000</ele>
        <time>2009-10-18T17:45:53Z</time>
      </trkpt>
      <trkpt lat="50.565659" lon="6.273746">
        <ele>546.600000</ele>
        <time>2009-10-18T17:46:11Z</time>
      </trkpt>
      <trkpt lat="50.565905" lon="6.273530">
        <ele>547.600000</ele>
        <time>2009-10-18T17:46:19Z</time>
      </trkpt>
      <trkpt lat="50.566102" lon="6.273302">
        <ele>546.200000</ele>
        <time>2009-10-18T17:46:27Z</time>
      </trkpt>
      <trkpt lat="50.566529" lon="6.272890">
        <ele>546.600000</ele>
        <time>2009-10-18T17:46:42Z</time>
      </trkpt>
      <trkpt lat="50.566945" lon="6.272340">
        <ele>544.700000</ele>
        <time>2009-10-18T17:46:59Z</time>
      </trkpt>
      <trkpt lat="50.567547" lon="6.271622">
        <ele>542.800000</ele>
        <time>2009-10-18T17:47:23Z</time>
      </trkpt>
      <trkpt lat="50.567609" lon="6.271443">
        <ele>544.700000</ele>
        <time>2009-10-18T17:47:27Z</time>
      </trkpt>
      <trkpt lat="50.567348" lon="6.271085">
        <ele>546.200000</ele>
        <time>2009-10-18T17:47:37Z</time>
      </trkpt>
      <trkpt lat="50.567365" lon="6.271096">
        <ele>545.200000</ele>
        <time>2009-10-18T17:47:38Z</time>
      </trkpt>
      <trkpt lat="50.567374" lon="6.271071">
        <ele>543.800000</ele>
        <time>2009-10-18T17:47:38Z</time>
      </trkpt>
      <trkpt lat="50.567325" lon="6.270942">
        <ele>543.300000</ele>
        <time>2009-10-18T17:47:41Z</time>
      </trkpt>
      <trkpt lat="50.567244" lon="6.270799">
        <ele>542.300000</ele>
        <time>2009-10-18T17:47:45Z</time>
      </trkpt>
      <trkpt lat="50.567174" lon="6.270704">
        <ele>541.800000</ele>
        <time>2009-10-18T17:47:48Z</time>
      </trkpt>
      <trkpt lat="50.566926" lon="6.270502">
        <ele>542.800000</ele>
        <time>2009-10-18T17:47:57Z</time>
      </trkpt>
      <trkpt lat="50.566699" lon="6.270181">
        <ele>540.900000</ele>
        <time>2009-10-18T17:48:06Z</time>
      </trkpt>
      <trkpt lat="50.566643" lon="6.270055">
        <ele>540.900000</ele>
        <time>2009-10-18T17:48:09Z</time>
      </trkpt>
      <trkpt lat="50.566567" lon="6.269703">
        <ele>538.500000</ele>
        <time>2009-10-18T17:48:16Z</time>
      </trkpt>
      <trkpt lat="50.566223" lon="6.269273">
        <ele>539.000000</ele>
        <time>2009-10-18T17:48:30Z</time>
      </trkpt>
      <trkpt lat="50.565774" lon="6.268794">
        <ele>538.000000</ele>
        <time>2009-10-18T17:48:47Z</time>
      </trkpt>
      <trkpt lat="50.565084" lon="6.268130">
        <ele>536.100000</ele>
        <time>2009-10-18T17:49:12Z</time>
      </trkpt>
      <trkpt lat="50.564992" lon="6.267946">
        <ele>533.700000</ele>
        <time>2009-10-18T17:49:16Z</time>
      </trkpt>
      <trkpt lat="50.564829" lon="6.267210">
        <ele>532.200000</ele>
        <time>2009-10-18T17:49:32Z</time>
      </trkpt>
      <trkpt lat="50.564635" lon="6.266515">
        <ele>528.900000</ele>
        <time>2009-10-18T17:49:46Z</time>
      </trkpt>
      <trkpt lat="50.564468" lon="6.266013">
        <ele>527.400000</ele>
        <time>2009-10-18T17:49:58Z</time>
      </trkpt>
      <trkpt lat="50.564354" lon="6.265604">
        <ele>524.500000</ele>
        <time>2009-10-18T17:50:06Z</time>
      </trkpt>
      <trkpt lat="50.564081" lon="6.264585">
        <ele>524.500000</ele>
        <time>2009-10-18T17:50:28Z</time>
      </trkpt>
      <trkpt lat="50.563836" lon="6.263804">
        <ele>524.100000</ele>
        <time>2009-10-18T17:50:45Z</time>
      </trkpt>
      <trkpt lat="50.563706" lon="6.263310">
        <ele>524.100000</ele>
        <time>2009-10-18T17:50:56Z</time>
      </trkpt>
      <trkpt lat="50.563427" lon="6.262521">
        <ele>521.700000</ele>
        <time>2009-10-18T17:51:13Z</time>
      </trkpt>
      <trkpt lat="50.563282" lon="6.261746">
        <ele>522.600000</ele>
        <time>2009-10-18T17:51:29Z</time>
      </trkpt>
      <trkpt lat="50.562976" lon="6.260283">
        <ele>524.100000</ele>
        <time>2009-10-18T17:52:00Z</time>
      </trkpt>
      <trkpt lat="50.562809" lon="6.259531">
        <ele>525.000000</ele>
        <time>2009-10-18T17:52:15Z</time>
      </trkpt>
      <trkpt lat="50.562708" lon="6.259311">
        <ele>526.500000</ele>
        <time>2009-10-18T17:52:21Z</time>
      </trkpt>
      <trkpt lat="50.562412" lon="6.258865">
        <ele>526.500000</ele>
        <time>2009-10-18T17:52:33Z</time>
      </trkpt>
      <trkpt lat="50.562037" lon="6.258414">
        <ele>520.700000</ele>
        <time>2009-10-18T17:52:48Z</time>
      </trkpt>
      <trkpt lat="50.561853" lon="6.258254">
        <ele>522.100000</ele>
        <time>2009-10-18T17:52:54Z</time>
      </trkpt>
      <trkpt lat="50.561632" lon="6.258017">
        <ele>520.700000</ele>
        <time>2009-10-18T17:53:03Z</time>
      </trkpt>
      <trkpt lat="50.561365" lon="6.257596">
        <ele>519.700000</ele>
        <time>2009-10-18T17:53:14Z</time>
      </trkpt>
      <trkpt lat="50.561265" lon="6.257503">
        <ele>519.700000</ele>
        <time>2009-10-18T17:53:18Z</time>
      </trkpt>
      <trkpt lat="50.561171" lon="6.257472">
        <ele>520.700000</ele>
        <time>2009-10-18T17:53:21Z</time>
      </trkpt>
      <trkpt lat="50.561171" lon="6.257451">
        <ele>525.500000</ele>
        <time>2009-10-18T17:53:21Z</time>
      </trkpt>
      <trkpt lat="50.561142" lon="6.257491">
        <ele>524.500000</ele>
        <time>2009-10-18T17:53:22Z</time>
      </trkpt>
      <trkpt lat="50.561179" lon="6.257465">
        <ele>522.100000</ele>
        <time>2009-10-18T17:53:24Z</time>
      </trkpt>
      <trkpt lat="50.561167" lon="6.257532">
        <ele>522.600000</ele>
        <time>2009-10-18T17:53:25Z</time>
      </trkpt>
      <trkpt lat="50.561052" lon="6.257609">
        <ele>521.700000</ele>
        <time>2009-10-18T17:53:29Z</time>
      </trkpt>
      <trkpt lat="50.560971" lon="6.257684">
        <ele>521.200000</ele>
        <time>2009-10-18T17:53:32Z</time>
      </trkpt>
      <trkpt lat="50.561021" lon="6.257652">
        <ele>524.100000</ele>
        <time>2009-10-18T17:53:34Z</time>
      </trkpt>
      <trkpt lat="50.561208" lon="6.257492">
        <ele>521.700000</ele>
        <time>2009-10-18T17:53:40Z</time>
      </trkpt>
      <trkpt lat="50.561176" lon="6.257435">
        <ele>519.700000</ele>
        <time>2009-10-18T17:53:42Z</time>
      </trkpt>
      <trkpt lat="50.561182" lon="6.257465">
        <ele>521.200000</ele>
        <time>2009-10-18T17:53:42Z</time>
      </trkpt>
      <trkpt lat="50.561224" lon="6.257437">
        <ele>521.700000</ele>
        <time>2009-10-18T17:53:44Z</time>
      </trkpt>
      <trkpt lat="50.561067" lon="6.257105">
        <ele>519.700000</ele>
        <time>2009-10-18T17:53:52Z</time>
      </trkpt>
      <trkpt lat="50.561060" lon="6.256899">
        <ele>519.700000</ele>
        <time>2009-10-18T17:53:56Z</time>
      </trkpt>
      <trkpt lat="50.561129" lon="6.256785">
        <ele>518.800000</ele>
        <time>2009-10-18T17:53:59Z</time>
      </trkpt>
      <trkpt lat="50.561223" lon="6.256458">
        <ele>516.800000</ele>
        <time>2009-10-18T17:54:06Z</time>
      </trkpt>
      <trkpt lat="50.561569" lon="6.256084">
        <ele>513.000000</ele>
        <time>2009-10-18T17:54:19Z</time>
      </trkpt>
      <trkpt lat="50.562266" lon="6.255548">
        <ele>506.300000</ele>
        <time>2009-10-18T17:54:43Z</time>
      </trkpt>
      <trkpt lat="50.562543" lon="6.255423">
        <ele>506.300000</ele>
        <time>2009-10-18T17:54:52Z</time>
      </trkpt>
      <trkpt lat="50.562742" lon="6.255415">
        <ele>508.700000</ele>
        <time>2009-10-18T17:54:58Z</time>
      </trkpt>
      <trkpt lat="50.562934" lon="6.255366">
        <ele>510.600000</ele>
        <time>2009-10-18T17:55:04Z</time>
      </trkpt>
      <trkpt lat="50.563020" lon="6.255374">
        <ele>512.000000</ele>
        <time>2009-10-18T17:55:07Z</time>
      </trkpt>
      <trkpt lat="50.563122" lon="6.255434">
        <ele>514.000000</ele>
        <time>2009-10-18T17:55:10Z</time>
      </trkpt>
      <trkpt lat="50.563205" lon="6.255436">
        <ele>514.000000</ele>
        <time>2009-10-18T17:55:13Z</time>
      </trkpt>
      <trkpt lat="50.563296" lon="6.255395">
        <ele>514.400000</ele>
        <time>2009-10-18T17:55:16Z</time>
      </trkpt>
      <trkpt lat="50.563566" lon="6.255214">
        <ele>522.100000</ele>
        <time>2009-10-18T17:55:25Z</time>
      </trkpt>
      <trkpt lat="50.563898" lon="6.254825">
        <ele>521.700000</ele>
        <time>2009-10-18T17:55:37Z</time>
      </trkpt>
      <trkpt lat="50.564255" lon="6.254619">
        <ele>521.700000</ele>
        <time>2009-10-18T17:55:49Z</time>
      </trkpt>
      <trkpt lat="50.564445" lon="6.254544">
        <ele>521.200000</ele>
        <time>2009-10-18T17:55:55Z</time>
      </trkpt>
      <trkpt lat="50.564589" lon="6.254545">
        <ele>524.100000</ele>
        <time>2009-10-18T17:56:00Z</time>
      </trkpt>
      <trkpt lat="50.564594" lon="6.254507">
        <ele>523.100000</ele>
        <time>2009-10-18T17:56:00Z</time>
      </trkpt>
      <trkpt lat="50.564653" lon="6.254477">
        <ele>523.600000</ele>
        <time>2009-10-18T17:56:02Z</time>
      </trkpt>
      <trkpt lat="50.564828" lon="6.254435">
        <ele>523.600000</ele>
        <time>2009-10-18T17:56:08Z</time>
      </trkpt>
      <trkpt lat="50.564984" lon="6.254347">
        <ele>525.500000</ele>
        <time>2009-10-18T17:56:13Z</time>
      </trkpt>
      <trkpt lat="50.565241" lon="6.254301">
        <ele>526.000000</ele>
        <time>2009-10-18T17:56:21Z</time>
      </trkpt>
      <trkpt lat="50.565514" lon="6.254303">
        <ele>527.400000</ele>
        <time>2009-10-18T17:56:29Z</time>
      </trkpt>
      <trkpt lat="50.565729" lon="6.254394">
        <ele>529.800000</ele>
        <time>2009-10-18T17:56:36Z</time>
      </trkpt>
      <trkpt lat="50.565786" lon="6.254453">
        <ele>529.300000</ele>
        <time>2009-10-18T17:56:38Z</time>
      </trkpt>
      <trkpt lat="50.565988" lon="6.254571">
        <ele>532.200000</ele>
        <time>2009-10-18T17:56:45Z</time>
      </trkpt>
      <trkpt lat="50.566081" lon="6.254676">
        <ele>532.700000</ele>
        <time>2009-10-18T17:56:49Z</time>
      </trkpt>
      <trkpt lat="50.566159" lon="6.254729">
        <ele>530.800000</ele>
        <time>2009-10-18T17:56:51Z</time>
      </trkpt>
      <trkpt lat="50.566254" lon="6.254679">
        <ele>530.300000</ele>
        <time>2009-10-18T17:56:54Z</time>
      </trkpt>
      <trkpt lat="50.566215" lon="6.254580">
        <ele>529.800000</ele>
        <time>2009-10-18T17:56:57Z</time>
      </trkpt>
      <trkpt lat="50.566262" lon="6.254680">
        <ele>517.800000</ele>
        <time>2009-10-18T17:56:59Z</time>
      </trkpt>
      <trkpt lat="50.566328" lon="6.254673">
        <ele>532.200000</ele>
        <time>2009-10-18T17:57:01Z</time>
      </trkpt>
      <trkpt lat="50.566359" lon="6.254590">
        <ele>537.500000</ele>
        <time>2009-10-18T17:57:03Z</time>
      </trkpt>
      <trkpt lat="50.566376" lon="6.254747">
        <ele>536.600000</ele>
        <time>2009-10-18T17:57:06Z</time>
      </trkpt>
      <trkpt lat="50.566357" lon="6.254785">
        <ele>531.300000</ele>
        <time>2009-10-18T17:57:07Z</time>
      </trkpt>
      <trkpt lat="50.566360" lon="6.254842">
        <ele>530.800000</ele>
        <time>2009-10-18T17:57:08Z</time>
      </trkpt>
      <trkpt lat="50.566390" lon="6.254904">
        <ele>528.400000</ele>
        <time>2009-10-18T17:57:10Z</time>
      </trkpt>
      <trkpt lat="50.566546" lon="6.255041">
        <ele>527.400000</ele>
        <time>2009-10-18T17:57:15Z</time>
      </trkpt>
      <trkpt lat="50.566845" lon="6.255191">
        <ele>528.900000</ele>
        <time>2009-10-18T17:57:25Z</time>
      </trkpt>
      <trkpt lat="50.566945" lon="6.255205">
        <ele>532.700000</ele>
        <time>2009-10-18T17:57:28Z</time>
      </trkpt>
      <trkpt lat="50.567079" lon="6.255301">
        <ele>535.100000</ele>
        <time>2009-10-18T17:57:33Z</time>
      </trkpt>
      <trkpt lat="50.567525" lon="6.255544">
        <ele>532.200000</ele>
        <time>2009-10-18T17:57:47Z</time>
      </trkpt>
      <trkpt lat="50.567929" lon="6.255740">
        <ele>541.800000</ele>
        <time>2009-10-18T17:58:00Z</time>
      </trkpt>
      <trkpt lat="50.568201" lon="6.255938">
        <ele>537.500000</ele>
        <time>2009-10-18T17:58:09Z</time>
      </trkpt>
      <trkpt lat="50.568644" lon="6.256175">
        <ele>539.400000</ele>
        <time>2009-10-18T17:58:24Z</time>
      </trkpt>
      <trkpt lat="50.568828" lon="6.256298">
        <ele>539.000000</ele>
        <time>2009-10-18T17:58:30Z</time>
      </trkpt>
      <trkpt lat="50.569370" lon="6.256843">
        <ele>538.500000</ele>
        <time>2009-10-18T17:58:50Z</time>
      </trkpt>
      <trkpt lat="50.569822" lon="6.257230">
        <ele>541.800000</ele>
        <time>2009-10-18T17:59:06Z</time>
      </trkpt>
      <trkpt lat="50.569961" lon="6.257386">
        <ele>545.200000</ele>
        <time>2009-10-18T17:59:11Z</time>
      </trkpt>
      <trkpt lat="50.570122" lon="6.257661">
        <ele>546.200000</ele>
        <time>2009-10-18T17:59:19Z</time>
      </trkpt>
      <trkpt lat="50.570344" lon="6.257922">
        <ele>546.600000</ele>
        <time>2009-10-18T17:59:27Z</time>
      </trkpt>
      <trkpt lat="50.570681" lon="6.258469">
        <ele>544.200000</ele>
        <time>2009-10-18T17:59:42Z</time>
      </trkpt>
      <trkpt lat="50.570743" lon="6.258531">
        <ele>543.300000</ele>
        <time>2009-10-18T17:59:44Z</time>
      </trkpt>
      <trkpt lat="50.570825" lon="6.258484">
        <ele>544.200000</ele>
        <time>2009-10-18T17:59:47Z</time>
      </trkpt>
      <trkpt lat="50.570988" lon="6.258308">
        <ele>550.000000</ele>
        <time>2009-10-18T17:59:53Z</time>
      </trkpt>
      <trkpt lat="50.571197" lon="6.258189">
        <ele>549.500000</ele>
        <time>2009-10-18T18:00:00Z</time>
      </trkpt>
      <trkpt lat="50.571224" lon="6.258144">
        <ele>549.100000</ele>
        <time>2009-10-18T18:00:01Z</time>
      </trkpt>
      <trkpt lat="50.571205" lon="6.258176">
        <ele>549.100000</ele>
        <time>2009-10-18T18:00:02Z</time>
      </trkpt>
      <trkpt lat="50.571152" lon="6.258157">
        <ele>545.700000</ele>
        <time>2009-10-18T18:00:04Z</time>
      </trkpt>
      <trkpt lat="50.571066" lon="6.258087">
        <ele>544.700000</ele>
        <time>2009-10-18T18:00:07Z</time>
      </trkpt>
      <trkpt lat="50.570737" lon="6.257647">
        <ele>541.800000</ele>
        <time>2009-10-18T18:00:20Z</time>
      </trkpt>
      <trkpt lat="50.570343" lon="6.256878">
        <ele>539.000000</ele>
        <time>2009-10-18T18:00:40Z</time>
      </trkpt>
      <trkpt lat="50.570049" lon="6.256360">
        <ele>540.900000</ele>
        <time>2009-10-18T18:00:53Z</time>
      </trkpt>
      <trkpt lat="50.569876" lon="6.255978">
        <ele>540.900000</ele>
        <time>2009-10-18T18:01:02Z</time>
      </trkpt>
      <trkpt lat="50.569719" lon="6.255578">
        <ele>540.400000</ele>
        <time>2009-10-18T18:01:12Z</time>
      </trkpt>
      <trkpt lat="50.569691" lon="6.255467">
        <ele>537.500000</ele>
        <time>2009-10-18T18:01:14Z</time>
      </trkpt>
      <trkpt lat="50.569340" lon="6.254772">
        <ele>536.600000</ele>
        <time>2009-10-18T18:01:31Z</time>
      </trkpt>
      <trkpt lat="50.569288" lon="6.254595">
        <ele>541.800000</ele>
        <time>2009-10-18T18:01:35Z</time>
      </trkpt>
      <trkpt lat="50.569232" lon="6.254536">
        <ele>540.900000</ele>
        <time>2009-10-18T18:01:37Z</time>
      </trkpt>
      <trkpt lat="50.569159" lon="6.254401">
        <ele>538.500000</ele>
        <time>2009-10-18T18:01:41Z</time>
      </trkpt>
      <trkpt lat="50.568911" lon="6.253889">
        <ele>535.100000</ele>
        <time>2009-10-18T18:01:53Z</time>
      </trkpt>
      <trkpt lat="50.568559" lon="6.253378">
        <ele>537.500000</ele>
        <time>2009-10-18T18:02:08Z</time>
      </trkpt>
      <trkpt lat="50.568456" lon="6.253121">
        <ele>537.500000</ele>
        <time>2009-10-18T18:02:14Z</time>
      </trkpt>
      <trkpt lat="50.568412" lon="6.252897">
        <ele>538.500000</ele>
        <time>2009-10-18T18:02:19Z</time>
      </trkpt>
      <trkpt lat="50.568388" lon="6.252600">
        <ele>542.800000</ele>
        <time>2009-10-18T18:02:25Z</time>
      </trkpt>
      <trkpt lat="50.568353" lon="6.252490">
        <ele>540.400000</ele>
        <time>2009-10-18T18:02:27Z</time>
      </trkpt>
      <trkpt lat="50.568385" lon="6.252395">
        <ele>540.400000</ele>
        <time>2009-10-18T18:02:29Z</time>
      </trkpt>
      <trkpt lat="50.568596" lon="6.252336">
        <ele>541.800000</ele>
        <time>2009-10-18T18:02:36Z</time>
      </trkpt>
      <trkpt lat="50.568721" lon="6.252275">
        <ele>543.300000</ele>
        <time>2009-10-18T18:02:40Z</time>
      </trkpt>
      <trkpt lat="50.569160" lon="6.252236">
        <ele>548.100000</ele>
        <time>2009-10-18T18:02:54Z</time>
      </trkpt>
      <trkpt lat="50.569440" lon="6.252562">
        <ele>550.000000</ele>
        <time>2009-10-18T18:03:04Z</time>
      </trkpt>
      <trkpt lat="50.569566" lon="6.252777">
        <ele>543.300000</ele>
        <time>2009-10-18T18:03:10Z</time>
      </trkpt>
      <trkpt lat="50.569622" lon="6.252757">
        <ele>544.200000</ele>
        <time>2009-10-18T18:03:12Z</time>
      </trkpt>
      <trkpt lat="50.569773" lon="6.252879">
        <ele>548.600000</ele>
        <time>2009-10-18T18:03:17Z</time>
      </trkpt>
      <trkpt lat="50.570254" lon="6.253512">
        <ele>551.000000</ele>
        <time>2009-10-18T18:03:36Z</time>
      </trkpt>
      <trkpt lat="50.570526" lon="6.253808">
        <ele>554.800000</ele>
        <time>2009-10-18T18:03:47Z</time>
      </trkpt>
      <trkpt lat="50.570599" lon="6.253905">
        <ele>551.500000</ele>
        <time>2009-10-18T18:03:50Z</time>
      </trkpt>
      <trkpt lat="50.570617" lon="6.253983">
        <ele>548.100000</ele>
        <time>2009-10-18T18:03:51Z</time>
      </trkpt>
      <trkpt lat="50.570613" lon="6.254057">
        <ele>549.100000</ele>
        <time>2009-10-18T18:03:53Z</time>
      </trkpt>
      <trkpt lat="50.570646" lon="6.254025">
        <ele>548.100000</ele>
        <time>2009-10-18T18:03:54Z</time>
      </trkpt>
      <trkpt lat="50.570732" lon="6.254088">
        <ele>547.600000</ele>
        <time>2009-10-18T18:03:57Z</time>
      </trkpt>
      <trkpt lat="50.570750" lon="6.254077">
        <ele>545.200000</ele>
        <time>2009-10-18T18:03:57Z</time>
      </trkpt>
      <trkpt lat="50.570748" lon="6.254099">
        <ele>544.200000</ele>
        <time>2009-10-18T18:03:58Z</time>
      </trkpt>
      <trkpt lat="50.571035" lon="6.253783">
        <ele>546.200000</ele>
        <time>2009-10-18T18:04:09Z</time>
      </trkpt>
      <trkpt lat="50.571160" lon="6.253727">
        <ele>546.600000</ele>
        <time>2009-10-18T18:04:13Z</time>
      </trkpt>
      <trkpt lat="50.571193" lon="6.253745">
        <ele>547.100000</ele>
        <time>2009-10-18T18:04:14Z</time>
      </trkpt>
      <trkpt lat="50.571553" lon="6.254072">
        <ele>548.600000</ele>
        <time>2009-10-18T18:04:27Z</time>
      </trkpt>
      <trkpt lat="50.571967" lon="6.254537">
        <ele>544.700000</ele>
        <time>2009-10-18T18:04:42Z</time>
      </trkpt>
      <trkpt lat="50.572361" lon="6.254901">
        <ele>547.100000</ele>
        <time>2009-10-18T18:04:57Z</time>
      </trkpt>
      <trkpt lat="50.572514" lon="6.255079">
        <ele>548.100000</ele>
        <time>2009-10-18T18:05:02Z</time>
      </trkpt>
      <trkpt lat="50.572677" lon="6.255183">
        <ele>548.600000</ele>
        <time>2009-10-18T18:05:08Z</time>
      </trkpt>
      <trkpt lat="50.572713" lon="6.255252">
        <ele>547.600000</ele>
        <time>2009-10-18T18:05:10Z</time>
      </trkpt>
      <trkpt lat="50.572722" lon="6.255420">
        <ele>547.600000</ele>
        <time>2009-10-18T18:05:13Z</time>
      </trkpt>
      <trkpt lat="50.572477" lon="6.255997">
        <ele>547.600000</ele>
        <time>2009-10-18T18:05:27Z</time>
      </trkpt>
      <trkpt lat="50.572195" lon="6.256589">
        <ele>546.200000</ele>
        <time>2009-10-18T18:05:41Z</time>
      </trkpt>
      <trkpt lat="50.572119" lon="6.256924">
        <ele>544.700000</ele>
        <time>2009-10-18T18:05:48Z</time>
      </trkpt>
      <trkpt lat="50.571961" lon="6.257202">
        <ele>544.700000</ele>
        <time>2009-10-18T18:05:55Z</time>
      </trkpt>
      <trkpt lat="50.571361" lon="6.258030">
        <ele>543.800000</ele>
        <time>2009-10-18T18:06:20Z</time>
      </trkpt>
      <trkpt lat="50.571345" lon="6.258282">
        <ele>544.200000</ele>
        <time>2009-10-18T18:06:25Z</time>
      </trkpt>
      <trkpt lat="50.571580" lon="6.258544">
        <ele>547.100000</ele>
        <time>2009-10-18T18:06:34Z</time>
      </trkpt>
      <trkpt lat="50.571668" lon="6.258726">
        <ele>546.600000</ele>
        <time>2009-10-18T18:06:38Z</time>
      </trkpt>
      <trkpt lat="50.571662" lon="6.259011">
        <ele>547.100000</ele>
        <time>2009-10-18T18:06:44Z</time>
      </trkpt>
      <trkpt lat="50.571721" lon="6.259416">
        <ele>550.000000</ele>
        <time>2009-10-18T18:06:52Z</time>
      </trkpt>
      <trkpt lat="50.571745" lon="6.259964">
        <ele>549.100000</ele>
        <time>2009-10-18T18:07:03Z</time>
      </trkpt>
      <trkpt lat="50.571819" lon="6.260246">
        <ele>544.700000</ele>
        <time>2009-10-18T18:07:09Z</time>
      </trkpt>
      <trkpt lat="50.571859" lon="6.260524">
        <ele>544.200000</ele>
        <time>2009-10-18T18:07:15Z</time>
      </trkpt>
      <trkpt lat="50.572010" lon="6.260908">
        <ele>547.600000</ele>
        <time>2009-10-18T18:07:23Z</time>
      </trkpt>
      <trkpt lat="50.572180" lon="6.261640">
        <ele>548.600000</ele>
        <time>2009-10-18T18:07:39Z</time>
      </trkpt>
      <trkpt lat="50.572268" lon="6.261939">
        <ele>550.500000</ele>
        <time>2009-10-18T18:07:45Z</time>
      </trkpt>
      <trkpt lat="50.572331" lon="6.262251">
        <ele>551.000000</ele>
        <time>2009-10-18T18:07:52Z</time>
      </trkpt>
      <trkpt lat="50.572442" lon="6.262406">
        <ele>552.400000</ele>
        <time>2009-10-18T18:07:56Z</time>
      </trkpt>
      <trkpt lat="50.572648" lon="6.262290">
        <ele>549.100000</ele>
        <time>2009-10-18T18:08:03Z</time>
      </trkpt>
      <trkpt lat="50.572751" lon="6.262345">
        <ele>550.500000</ele>
        <time>2009-10-18T18:08:06Z</time>
      </trkpt>
      <trkpt lat="50.572923" lon="6.262669">
        <ele>551.000000</ele>
        <time>2009-10-18T18:08:15Z</time>
      </trkpt>
      <trkpt lat="50.572991" lon="6.262879">
        <ele>550.500000</ele>
        <time>2009-10-18T18:08:19Z</time>
      </trkpt>
      <trkpt lat="50.573097" lon="6.262840">
        <ele>555.800000</ele>
        <time>2009-10-18T18:08:23Z</time>
      </trkpt>
      <trkpt lat="50.573239" lon="6.263599">
        <ele>564.900000</ele>
        <time>2009-10-18T18:08:38Z</time>
      </trkpt>
      <trkpt lat="50.573209" lon="6.263721">
        <ele>551.000000</ele>
        <time>2009-10-18T18:08:41Z</time>
      </trkpt>
      <trkpt lat="50.573320" lon="6.263788">
        <ele>550.000000</ele>
        <time>2009-10-18T18:08:44Z</time>
      </trkpt>
      <trkpt lat="50.573472" lon="6.263709">
        <ele>553.900000</ele>
        <time>2009-10-18T18:08:49Z</time>
      </trkpt>
      <trkpt lat="50.573539" lon="6.263700">
        <ele>554.300000</ele>
        <time>2009-10-18T18:08:52Z</time>
      </trkpt>
      <trkpt lat="50.573582" lon="6.263770">
        <ele>555.300000</ele>
        <time>2009-10-18T18:08:53Z</time>
      </trkpt>
      <trkpt lat="50.573612" lon="6.263978">
        <ele>557.700000</ele>
        <time>2009-10-18T18:08:58Z</time>
      </trkpt>
      <trkpt lat="50.573609" lon="6.263949">
        <ele>558.200000</ele>
        <time>2009-10-18T18:08:58Z</time>
      </trkpt>
      <trkpt lat="50.573609" lon="6.263968">
        <ele>555.800000</ele>
        <time>2009-10-18T18:08:59Z</time>
      </trkpt>
      <trkpt lat="50.573591" lon="6.263963">
        <ele>556.700000</ele>
        <time>2009-10-18T18:08:59Z</time>
      </trkpt>
    </trkseg>
  </trk>

</gpx>
